X  Luk Metar data     LIRA Ciampino–G. B. Pastine International Airport
Temperatur
77°F Temperatur
59°F Duggpunkt
54% Fugtighed



Vind
12 MPT
19 KM/T
5 M/S
10 KNOB



200°
SSV
Nuværende forhold

For det meste skyet For det meste skyet
Tryk 1014.9 (hPa) - 29.97 (inHg)
Sigt 6 (mil) - 9.7 (km)
Lufthavn
Lufthavnskode LIRA

Lokation: Ciampino–G. B. Pastine International Airport
Afstand: 48 (mi)

Metar:
LIRA 131050Z 20010KT 180V240 9999 BKN030 25/15 Q1015

Tid: 13-06-2024 10:50 CEST